sensor_id;sensor_type;location;lat;lon;timestamp;P1;durP1;ratioP1;P2;durP2;ratioP2
44822;SDS011;51097;51.984;5.650;2023-03-01T00:01:20;13.15;;;10.40;;
44822;SDS011;51097;51.984;5.650;2023-03-01T00:03:47;16.75;;;10.18;;
44822;SDS011;51097;51.984;5.650;2023-03-01T00:06:13;11.00;;;8.75;;
44822;SDS011;51097;51.984;5.650;2023-03-01T00:08:38;13.05;;;9.77;;
44822;SDS011;51097;51.984;5.650;2023-03-01T00:11:06;13.82;;;9.32;;
44822;SDS011;51097;51.984;5.650;2023-03-01T00:13:35;15.70;;;8.30;;
44822;SDS011;51097;51.984;5.650;2023-03-01T00:16:08;13.23;;;8.95;;
44822;SDS011;51097;51.984;5.650;2023-03-01T00:18:35;14.05;;;9.45;;
44822;SDS011;51097;51.984;5.650;2023-03-01T00:21:01;11.85;;;9.23;;
44822;SDS011;51097;51.984;5.650;2023-03-01T00:23:27;15.00;;;9.30;;
44822;SDS011;51097;51.984;5.650;2023-03-01T00:25:53;14.95;;;9.35;;
44822;SDS011;51097;51.984;5.650;2023-03-01T00:28:19;11.80;;;8.25;;
44822;SDS011;51097;51.984;5.650;2023-03-01T00:30:45;10.43;;;8.40;;
44822;SDS011;51097;51.984;5.650;2023-03-01T00:33:11;10.73;;;7.70;;
44822;SDS011;51097;51.984;5.650;2023-03-01T00:35:37;11.57;;;8.48;;
44822;SDS011;51097;51.984;5.650;2023-03-01T00:38:03;12.23;;;7.78;;
44822;SDS011;51097;51.984;5.650;2023-03-01T00:40:30;11.68;;;8.48;;
44822;SDS011;51097;51.984;5.650;2023-03-01T00:42:57;14.90;;;9.45;;
44822;SDS011;51097;51.984;5.650;2023-03-01T00:45:23;11.27;;;8.32;;
44822;SDS011;51097;51.984;5.650;2023-03-01T00:47:50;13.25;;;8.30;;
44822;SDS011;51097;51.984;5.650;2023-03-01T00:50:16;16.90;;;8.93;;
44822;SDS011;51097;51.984;5.650;2023-03-01T00:52:42;12.75;;;8.13;;
44822;SDS011;51097;51.984;5.650;2023-03-01T00:55:08;10.93;;;8.27;;
44822;SDS011;51097;51.984;5.650;2023-03-01T00:57:34;10.93;;;8.15;;
44822;SDS011;51097;51.984;5.650;2023-03-01T00:59:59;11.52;;;8.55;;
44822;SDS011;51097;51.984;5.650;2023-03-01T01:02:25;12.98;;;8.55;;
44822;SDS011;51097;51.984;5.650;2023-03-01T01:04:51;11.65;;;8.60;;
44822;SDS011;51097;51.984;5.650;2023-03-01T01:07:17;12.27;;;8.40;;
44822;SDS011;51097;51.984;5.650;2023-03-01T01:09:45;12.80;;;8.35;;
44822;SDS011;51097;51.984;5.650;2023-03-01T01:12:11;12.82;;;8.38;;
44822;SDS011;51097;51.984;5.650;2023-03-01T01:14:36;13.25;;;8.88;;
44822;SDS011;51097;51.984;5.650;2023-03-01T01:17:02;13.75;;;8.77;;
44822;SDS011;51097;51.984;5.650;2023-03-01T01:19:28;15.00;;;8.80;;
44822;SDS011;51097;51.984;5.650;2023-03-01T01:21:53;9.32;;;7.78;;
44822;SDS011;51097;51.984;5.650;2023-03-01T01:24:19;14.02;;;9.52;;
44822;SDS011;51097;51.984;5.650;2023-03-01T01:26:45;12.80;;;8.82;;
44822;SDS011;51097;51.984;5.650;2023-03-01T01:29:11;17.35;;;10.13;;
44822;SDS011;51097;51.984;5.650;2023-03-01T01:31:38;13.05;;;9.52;;
44822;SDS011;51097;51.984;5.650;2023-03-01T01:34:06;11.80;;;8.85;;
44822;SDS011;51097;51.984;5.650;2023-03-01T01:36:34;12.43;;;9.38;;
44822;SDS011;51097;51.984;5.650;2023-03-01T01:39:00;11.35;;;9.57;;
44822;SDS011;51097;51.984;5.650;2023-03-01T01:41:27;12.07;;;9.10;;
44822;SDS011;51097;51.984;5.650;2023-03-01T01:44:10;13.10;;;9.10;;
44822;SDS011;51097;51.984;5.650;2023-03-01T01:46:42;12.55;;;10.00;;
44822;SDS011;51097;51.984;5.650;2023-03-01T01:49:20;15.13;;;10.55;;
44822;SDS011;51097;51.984;5.650;2023-03-01T01:51:48;13.30;;;10.02;;
44822;SDS011;51097;51.984;5.650;2023-03-01T01:54:22;14.65;;;10.48;;
44822;SDS011;51097;51.984;5.650;2023-03-01T01:57:00;14.07;;;9.70;;
44822;SDS011;51097;51.984;5.650;2023-03-01T01:59:28;14.63;;;9.88;;
44822;SDS011;51097;51.984;5.650;2023-03-01T02:01:57;12.60;;;9.18;;
44822;SDS011;51097;51.984;5.650;2023-03-01T02:04:25;13.95;;;9.45;;
44822;SDS011;51097;51.984;5.650;2023-03-01T02:06:53;13.60;;;9.70;;
44822;SDS011;51097;51.984;5.650;2023-03-01T02:09:25;15.45;;;9.75;;
44822;SDS011;51097;51.984;5.650;2023-03-01T02:11:52;14.98;;;10.30;;
44822;SDS011;51097;51.984;5.650;2023-03-01T02:14:18;15.13;;;9.68;;
44822;SDS011;51097;51.984;5.650;2023-03-01T02:16:44;12.60;;;9.50;;
44822;SDS011;51097;51.984;5.650;2023-03-01T02:19:18;15.77;;;9.52;;
44822;SDS011;51097;51.984;5.650;2023-03-01T02:25:07;15.65;;;9.50;;
44822;SDS011;51097;51.984;5.650;2023-03-01T02:30:27;12.38;;;9.45;;
44822;SDS011;51097;51.984;5.650;2023-03-01T02:32:54;13.23;;;9.35;;
44822;SDS011;51097;51.984;5.650;2023-03-01T02:35:36;12.73;;;8.77;;
44822;SDS011;51097;51.984;5.650;2023-03-01T02:38:03;16.92;;;10.02;;
44822;SDS011;51097;51.984;5.650;2023-03-01T02:40:33;16.67;;;9.00;;
44822;SDS011;51097;51.984;5.650;2023-03-01T02:42:59;14.02;;;9.10;;
44822;SDS011;51097;51.984;5.650;2023-03-01T02:45:25;15.13;;;9.25;;
44822;SDS011;51097;51.984;5.650;2023-03-01T02:47:55;13.95;;;9.38;;
44822;SDS011;51097;51.984;5.650;2023-03-01T02:55:41;13.90;;;8.80;;
44822;SDS011;51097;51.984;5.650;2023-03-01T02:58:06;13.38;;;9.25;;
44822;SDS011;51097;51.984;5.650;2023-03-01T03:00:34;11.93;;;9.20;;
44822;SDS011;51097;51.984;5.650;2023-03-01T03:03:05;12.90;;;9.23;;
44822;SDS011;51097;51.984;5.650;2023-03-01T03:05:32;12.85;;;9.07;;
44822;SDS011;51097;51.984;5.650;2023-03-01T03:07:59;17.17;;;9.82;;
44822;SDS011;51097;51.984;5.650;2023-03-01T03:10:27;13.57;;;9.98;;
44822;SDS011;51097;51.984;5.650;2023-03-01T03:12:59;13.00;;;10.35;;
44822;SDS011;51097;51.984;5.650;2023-03-01T03:15:27;16.13;;;9.85;;
44822;SDS011;51097;51.984;5.650;2023-03-01T03:17:53;15.23;;;9.15;;
44822;SDS011;51097;51.984;5.650;2023-03-01T03:20:19;13.80;;;9.77;;
44822;SDS011;51097;51.984;5.650;2023-03-01T03:22:50;15.18;;;10.10;;
44822;SDS011;51097;51.984;5.650;2023-03-01T03:25:17;18.30;;;9.13;;
44822;SDS011;51097;51.984;5.650;2023-03-01T03:27:43;11.20;;;8.02;;
44822;SDS011;51097;51.984;5.650;2023-03-01T03:30:12;12.32;;;8.95;;
44822;SDS011;51097;51.984;5.650;2023-03-01T03:32:41;14.48;;;9.20;;
44822;SDS011;51097;51.984;5.650;2023-03-01T03:35:18;14.43;;;8.88;;
44822;SDS011;51097;51.984;5.650;2023-03-01T03:37:49;14.05;;;8.35;;
44822;SDS011;51097;51.984;5.650;2023-03-01T03:40:37;16.08;;;9.23;;
44822;SDS011;51097;51.984;5.650;2023-03-01T03:43:09;10.43;;;8.07;;
44822;SDS011;51097;51.984;5.650;2023-03-01T03:45:37;13.05;;;9.02;;
44822;SDS011;51097;51.984;5.650;2023-03-01T03:48:04;16.55;;;10.25;;
44822;SDS011;51097;51.984;5.650;2023-03-01T03:50:31;13.82;;;8.77;;
44822;SDS011;51097;51.984;5.650;2023-03-01T03:52:57;12.82;;;8.85;;
44822;SDS011;51097;51.984;5.650;2023-03-01T03:55:26;14.55;;;10.20;;
44822;SDS011;51097;51.984;5.650;2023-03-01T03:57:56;14.00;;;10.60;;
44822;SDS011;51097;51.984;5.650;2023-03-01T04:00:26;13.40;;;9.40;;
44822;SDS011;51097;51.984;5.650;2023-03-01T04:02:53;14.80;;;10.25;;
44822;SDS011;51097;51.984;5.650;2023-03-01T04:05:21;13.02;;;8.70;;
44822;SDS011;51097;51.984;5.650;2023-03-01T04:07:47;15.48;;;10.60;;
44822;SDS011;51097;51.984;5.650;2023-03-01T04:10:17;11.90;;;9.35;;
44822;SDS011;51097;51.984;5.650;2023-03-01T04:12:42;15.52;;;10.15;;
44822;SDS011;51097;51.984;5.650;2023-03-01T04:15:09;14.63;;;10.23;;
44822;SDS011;51097;51.984;5.650;2023-03-01T04:17:39;10.90;;;6.82;;
44822;SDS011;51097;51.984;5.650;2023-03-01T04:20:05;14.25;;;10.75;;
44822;SDS011;51097;51.984;5.650;2023-03-01T04:22:31;12.65;;;9.82;;
44822;SDS011;51097;51.984;5.650;2023-03-01T04:24:58;13.20;;;10.05;;
44822;SDS011;51097;51.984;5.650;2023-03-01T04:27:27;14.98;;;10.52;;
44822;SDS011;51097;51.984;5.650;2023-03-01T04:29:52;16.80;;;10.60;;
44822;SDS011;51097;51.984;5.650;2023-03-01T04:32:18;13.85;;;10.95;;
44822;SDS011;51097;51.984;5.650;2023-03-01T04:34:43;13.07;;;9.60;;
44822;SDS011;51097;51.984;5.650;2023-03-01T04:37:09;16.77;;;10.02;;
44822;SDS011;51097;51.984;5.650;2023-03-01T04:39:34;13.93;;;9.77;;
44822;SDS011;51097;51.984;5.650;2023-03-01T04:42:10;16.70;;;9.70;;
44822;SDS011;51097;51.984;5.650;2023-03-01T04:44:45;16.58;;;11.73;;
44822;SDS011;51097;51.984;5.650;2023-03-01T04:47:10;14.38;;;10.13;;
44822;SDS011;51097;51.984;5.650;2023-03-01T04:49:37;16.10;;;11.30;;
44822;SDS011;51097;51.984;5.650;2023-03-01T04:52:03;14.98;;;9.52;;
44822;SDS011;51097;51.984;5.650;2023-03-01T04:54:30;16.63;;;10.45;;
44822;SDS011;51097;51.984;5.650;2023-03-01T04:56:57;14.88;;;10.63;;
44822;SDS011;51097;51.984;5.650;2023-03-01T04:59:23;15.30;;;9.35;;
44822;SDS011;51097;51.984;5.650;2023-03-01T05:01:49;16.15;;;10.43;;
44822;SDS011;51097;51.984;5.650;2023-03-01T05:04:20;15.82;;;10.48;;
44822;SDS011;51097;51.984;5.650;2023-03-01T05:06:49;16.10;;;11.27;;
44822;SDS011;51097;51.984;5.650;2023-03-01T05:09:15;17.30;;;12.10;;
44822;SDS011;51097;51.984;5.650;2023-03-01T05:11:41;14.15;;;9.20;;
44822;SDS011;51097;51.984;5.650;2023-03-01T05:14:07;12.85;;;9.95;;
44822;SDS011;51097;51.984;5.650;2023-03-01T05:16:33;12.48;;;9.65;;
44822;SDS011;51097;51.984;5.650;2023-03-01T05:19:01;16.27;;;10.65;;
44822;SDS011;51097;51.984;5.650;2023-03-01T05:21:36;12.73;;;9.32;;
44822;SDS011;51097;51.984;5.650;2023-03-01T05:24:22;14.88;;;9.73;;
44822;SDS011;51097;51.984;5.650;2023-03-01T05:26:48;14.07;;;9.27;;
44822;SDS011;51097;51.984;5.650;2023-03-01T05:29:16;18.35;;;10.95;;
44822;SDS011;51097;51.984;5.650;2023-03-01T05:31:42;14.00;;;10.27;;
44822;SDS011;51097;51.984;5.650;2023-03-01T05:34:08;16.15;;;10.48;;
44822;SDS011;51097;51.984;5.650;2023-03-01T05:36:33;16.23;;;10.40;;
44822;SDS011;51097;51.984;5.650;2023-03-01T05:38:59;15.95;;;9.90;;
44822;SDS011;51097;51.984;5.650;2023-03-01T05:41:25;14.32;;;10.40;;
44822;SDS011;51097;51.984;5.650;2023-03-01T05:43:51;14.82;;;10.38;;
44822;SDS011;51097;51.984;5.650;2023-03-01T05:46:16;18.70;;;9.68;;
44822;SDS011;51097;51.984;5.650;2023-03-01T05:48:42;14.43;;;10.38;;
44822;SDS011;51097;51.984;5.650;2023-03-01T05:51:08;13.52;;;10.13;;
44822;SDS011;51097;51.984;5.650;2023-03-01T05:53:34;14.27;;;10.55;;
44822;SDS011;51097;51.984;5.650;2023-03-01T05:55:59;15.00;;;9.45;;
44822;SDS011;51097;51.984;5.650;2023-03-01T05:58:27;16.52;;;11.32;;
44822;SDS011;51097;51.984;5.650;2023-03-01T06:00:52;18.85;;;11.43;;
44822;SDS011;51097;51.984;5.650;2023-03-01T06:03:18;20.38;;;10.70;;
44822;SDS011;51097;51.984;5.650;2023-03-01T06:05:44;19.98;;;10.48;;
44822;SDS011;51097;51.984;5.650;2023-03-01T06:08:10;16.20;;;10.77;;
44822;SDS011;51097;51.984;5.650;2023-03-01T06:10:36;15.00;;;10.23;;
44822;SDS011;51097;51.984;5.650;2023-03-01T06:13:02;14.18;;;11.05;;
44822;SDS011;51097;51.984;5.650;2023-03-01T06:15:28;22.13;;;11.63;;
44822;SDS011;51097;51.984;5.650;2023-03-01T06:17:54;16.15;;;11.25;;
44822;SDS011;51097;51.984;5.650;2023-03-01T06:20:22;17.92;;;11.20;;
44822;SDS011;51097;51.984;5.650;2023-03-01T06:22:49;18.55;;;10.93;;
44822;SDS011;51097;51.984;5.650;2023-03-01T06:25:17;19.10;;;10.23;;
44822;SDS011;51097;51.984;5.650;2023-03-01T06:27:44;15.48;;;10.00;;
44822;SDS011;51097;51.984;5.650;2023-03-01T06:30:11;14.02;;;9.68;;
44822;SDS011;51097;51.984;5.650;2023-03-01T06:32:38;14.57;;;11.15;;
44822;SDS011;51097;51.984;5.650;2023-03-01T06:35:11;14.32;;;10.63;;
44822;SDS011;51097;51.984;5.650;2023-03-01T06:37:39;15.02;;;10.10;;
44822;SDS011;51097;51.984;5.650;2023-03-01T06:40:06;20.85;;;10.13;;
44822;SDS011;51097;51.984;5.650;2023-03-01T06:42:33;11.55;;;8.95;;
44822;SDS011;51097;51.984;5.650;2023-03-01T06:45:00;19.10;;;11.23;;
44822;SDS011;51097;51.984;5.650;2023-03-01T06:47:25;11.25;;;8.68;;
44822;SDS011;51097;51.984;5.650;2023-03-01T06:49:51;11.98;;;9.18;;
44822;SDS011;51097;51.984;5.650;2023-03-01T06:52:16;13.55;;;9.65;;
44822;SDS011;51097;51.984;5.650;2023-03-01T06:54:42;14.77;;;9.90;;
44822;SDS011;51097;51.984;5.650;2023-03-01T06:57:07;14.45;;;9.35;;
44822;SDS011;51097;51.984;5.650;2023-03-01T06:59:33;15.57;;;10.05;;
44822;SDS011;51097;51.984;5.650;2023-03-01T07:01:58;15.23;;;9.68;;
44822;SDS011;51097;51.984;5.650;2023-03-01T07:04:24;12.55;;;8.98;;
44822;SDS011;51097;51.984;5.650;2023-03-01T07:06:50;14.05;;;10.13;;
44822;SDS011;51097;51.984;5.650;2023-03-01T07:09:20;17.20;;;9.85;;
44822;SDS011;51097;51.984;5.650;2023-03-01T07:11:47;14.77;;;9.90;;
44822;SDS011;51097;51.984;5.650;2023-03-01T07:14:13;13.90;;;9.63;;
44822;SDS011;51097;51.984;5.650;2023-03-01T07:16:39;11.77;;;8.98;;
44822;SDS011;51097;51.984;5.650;2023-03-01T07:19:04;14.05;;;9.23;;
44822;SDS011;51097;51.984;5.650;2023-03-01T07:21:30;13.65;;;9.98;;
44822;SDS011;51097;51.984;5.650;2023-03-01T07:23:56;12.70;;;9.98;;
44822;SDS011;51097;51.984;5.650;2023-03-01T07:26:22;15.80;;;9.75;;
44822;SDS011;51097;51.984;5.650;2023-03-01T07:28:47;13.77;;;9.90;;
44822;SDS011;51097;51.984;5.650;2023-03-01T07:31:13;15.50;;;9.60;;
44822;SDS011;51097;51.984;5.650;2023-03-01T07:33:39;15.15;;;9.02;;
44822;SDS011;51097;51.984;5.650;2023-03-01T07:36:04;16.00;;;9.57;;
44822;SDS011;51097;51.984;5.650;2023-03-01T07:38:31;14.82;;;9.27;;
44822;SDS011;51097;51.984;5.650;2023-03-01T07:40:57;17.70;;;10.15;;
44822;SDS011;51097;51.984;5.650;2023-03-01T07:43:28;13.30;;;9.95;;
44822;SDS011;51097;51.984;5.650;2023-03-01T07:45:54;13.55;;;8.80;;
44822;SDS011;51097;51.984;5.650;2023-03-01T07:48:22;14.10;;;9.15;;
44822;SDS011;51097;51.984;5.650;2023-03-01T07:50:48;16.10;;;10.55;;
44822;SDS011;51097;51.984;5.650;2023-03-01T07:53:13;14.63;;;10.00;;
44822;SDS011;51097;51.984;5.650;2023-03-01T07:55:39;12.88;;;8.88;;
44822;SDS011;51097;51.984;5.650;2023-03-01T07:58:04;14.52;;;9.55;;
44822;SDS011;51097;51.984;5.650;2023-03-01T08:00:30;12.07;;;9.35;;
44822;SDS011;51097;51.984;5.650;2023-03-01T08:02:58;12.10;;;9.07;;
44822;SDS011;51097;51.984;5.650;2023-03-01T08:05:25;15.82;;;9.20;;
44822;SDS011;51097;51.984;5.650;2023-03-01T08:07:51;14.75;;;9.80;;
44822;SDS011;51097;51.984;5.650;2023-03-01T08:10:16;13.00;;;9.27;;
44822;SDS011;51097;51.984;5.650;2023-03-01T08:12:42;11.45;;;8.32;;
44822;SDS011;51097;51.984;5.650;2023-03-01T08:15:08;14.50;;;9.80;;
44822;SDS011;51097;51.984;5.650;2023-03-01T08:17:33;11.85;;;8.40;;
44822;SDS011;51097;51.984;5.650;2023-03-01T08:19:59;12.18;;;8.95;;
44822;SDS011;51097;51.984;5.650;2023-03-01T08:22:25;14.48;;;8.85;;
44822;SDS011;51097;51.984;5.650;2023-03-01T08:24:50;13.45;;;9.75;;
44822;SDS011;51097;51.984;5.650;2023-03-01T08:27:16;14.52;;;9.95;;
44822;SDS011;51097;51.984;5.650;2023-03-01T08:29:42;14.18;;;9.65;;
44822;SDS011;51097;51.984;5.650;2023-03-01T08:32:08;10.98;;;8.23;;
44822;SDS011;51097;51.984;5.650;2023-03-01T08:34:33;11.07;;;8.40;;
44822;SDS011;51097;51.984;5.650;2023-03-01T08:37:00;14.88;;;9.60;;
44822;SDS011;51097;51.984;5.650;2023-03-01T08:39:26;14.15;;;8.50;;
44822;SDS011;51097;51.984;5.650;2023-03-01T08:41:52;9.68;;;8.35;;
44822;SDS011;51097;51.984;5.650;2023-03-01T08:44:18;10.40;;;8.40;;
44822;SDS011;51097;51.984;5.650;2023-03-01T08:46:44;9.95;;;7.82;;
44822;SDS011;51097;51.984;5.650;2023-03-01T08:49:14;11.38;;;7.65;;
44822;SDS011;51097;51.984;5.650;2023-03-01T08:51:42;10.75;;;7.90;;
44822;SDS011;51097;51.984;5.650;2023-03-01T08:54:12;8.75;;;6.88;;
44822;SDS011;51097;51.984;5.650;2023-03-01T08:56:39;7.97;;;6.13;;
44822;SDS011;51097;51.984;5.650;2023-03-01T08:59:05;12.32;;;7.85;;
44822;SDS011;51097;51.984;5.650;2023-03-01T09:01:31;8.75;;;6.80;;
44822;SDS011;51097;51.984;5.650;2023-03-01T09:03:56;13.05;;;7.78;;
44822;SDS011;51097;51.984;5.650;2023-03-01T09:06:22;10.15;;;7.35;;
44822;SDS011;51097;51.984;5.650;2023-03-01T09:08:48;13.48;;;6.30;;
44822;SDS011;51097;51.984;5.650;2023-03-01T09:11:15;9.55;;;6.53;;
44822;SDS011;51097;51.984;5.650;2023-03-01T09:13:43;13.98;;;7.55;;
44822;SDS011;51097;51.984;5.650;2023-03-01T09:16:10;9.50;;;7.05;;
44822;SDS011;51097;51.984;5.650;2023-03-01T09:18:38;10.40;;;7.00;;
44822;SDS011;51097;51.984;5.650;2023-03-01T09:21:08;11.93;;;6.63;;
44822;SDS011;51097;51.984;5.650;2023-03-01T09:23:44;9.18;;;6.30;;
44822;SDS011;51097;51.984;5.650;2023-03-01T09:28:41;6.97;;;5.65;;
44822;SDS011;51097;51.984;5.650;2023-03-01T09:31:09;9.23;;;6.47;;
44822;SDS011;51097;51.984;5.650;2023-03-01T09:33:37;6.88;;;5.88;;
44822;SDS011;51097;51.984;5.650;2023-03-01T09:36:04;7.95;;;5.40;;
44822;SDS011;51097;51.984;5.650;2023-03-01T09:38:32;10.00;;;5.85;;
44822;SDS011;51097;51.984;5.650;2023-03-01T09:40:58;7.47;;;6.10;;
44822;SDS011;51097;51.984;5.650;2023-03-01T09:45:54;7.03;;;5.43;;
44822;SDS011;51097;51.984;5.650;2023-03-01T09:48:24;7.82;;;5.28;;
44822;SDS011;51097;51.984;5.650;2023-03-01T09:50:53;5.30;;;4.60;;
44822;SDS011;51097;51.984;5.650;2023-03-01T09:53:20;7.05;;;5.53;;
44822;SDS011;51097;51.984;5.650;2023-03-01T09:55:53;6.75;;;5.35;;
44822;SDS011;51097;51.984;5.650;2023-03-01T10:01:34;8.00;;;5.22;;
44822;SDS011;51097;51.984;5.650;2023-03-01T10:04:06;6.57;;;4.90;;
44822;SDS011;51097;51.984;5.650;2023-03-01T10:06:49;7.45;;;4.88;;
44822;SDS011;51097;51.984;5.650;2023-03-01T10:09:22;7.25;;;4.97;;
44822;SDS011;51097;51.984;5.650;2023-03-01T10:11:48;4.85;;;4.10;;
44822;SDS011;51097;51.984;5.650;2023-03-01T10:16:58;7.38;;;4.72;;
44822;SDS011;51097;51.984;5.650;2023-03-01T10:21:53;5.80;;;4.25;;
44822;SDS011;51097;51.984;5.650;2023-03-01T10:24:22;6.40;;;4.20;;
44822;SDS011;51097;51.984;5.650;2023-03-01T10:26:57;6.60;;;4.03;;
44822;SDS011;51097;51.984;5.650;2023-03-01T10:29:34;4.78;;;3.92;;
44822;SDS011;51097;51.984;5.650;2023-03-01T10:32:09;11.70;;;4.53;;
44822;SDS011;51097;51.984;5.650;2023-03-01T10:34:36;8.27;;;4.18;;
44822;SDS011;51097;51.984;5.650;2023-03-01T10:37:15;5.43;;;3.83;;
44822;SDS011;51097;51.984;5.650;2023-03-01T10:42:36;5.18;;;3.97;;
44822;SDS011;51097;51.984;5.650;2023-03-01T10:45:15;6.85;;;4.68;;
44822;SDS011;51097;51.984;5.650;2023-03-01T10:48:02;7.10;;;4.15;;
44822;SDS011;51097;51.984;5.650;2023-03-01T10:51:05;5.78;;;3.85;;
44822;SDS011;51097;51.984;5.650;2023-03-01T10:54:09;4.45;;;3.55;;
44822;SDS011;51097;51.984;5.650;2023-03-01T10:56:22;8.25;;;4.68;;
44822;SDS011;51097;51.984;5.650;2023-03-01T10:58:59;5.95;;;4.93;;
44822;SDS011;51097;51.984;5.650;2023-03-01T11:01:28;6.15;;;5.20;;
44822;SDS011;51097;51.984;5.650;2023-03-01T11:06:32;8.25;;;6.32;;
44822;SDS011;51097;51.984;5.650;2023-03-01T11:09:12;8.50;;;5.75;;
44822;SDS011;51097;51.984;5.650;2023-03-01T11:11:40;6.63;;;5.43;;
44822;SDS011;51097;51.984;5.650;2023-03-01T11:14:07;6.35;;;5.38;;
44822;SDS011;51097;51.984;5.650;2023-03-01T11:16:44;8.10;;;5.78;;
44822;SDS011;51097;51.984;5.650;2023-03-01T11:21:39;6.22;;;5.20;;
44822;SDS011;51097;51.984;5.650;2023-03-01T11:24:12;7.85;;;5.57;;
44822;SDS011;51097;51.984;5.650;2023-03-01T11:26:40;8.82;;;5.07;;
44822;SDS011;51097;51.984;5.650;2023-03-01T11:29:42;8.75;;;6.18;;
44822;SDS011;51097;51.984;5.650;2023-03-01T11:32:27;8.43;;;5.97;;
44822;SDS011;51097;51.984;5.650;2023-03-01T11:34:57;6.72;;;5.53;;
44822;SDS011;51097;51.984;5.650;2023-03-01T11:42:56;5.28;;;4.40;;
44822;SDS011;51097;51.984;5.650;2023-03-01T11:45:31;6.65;;;4.85;;
44822;SDS011;51097;51.984;5.650;2023-03-01T11:48:26;6.97;;;4.57;;
44822;SDS011;51097;51.984;5.650;2023-03-01T11:51:05;6.05;;;4.18;;
44822;SDS011;51097;51.984;5.650;2023-03-01T11:53:55;6.25;;;4.47;;
44822;SDS011;51097;51.984;5.650;2023-03-01T11:56:43;6.50;;;4.88;;
44822;SDS011;51097;51.984;5.650;2023-03-01T11:59:38;6.53;;;4.57;;
44822;SDS011;51097;51.984;5.650;2023-03-01T12:09:58;7.45;;;4.70;;
44822;SDS011;51097;51.984;5.650;2023-03-01T12:12:29;5.85;;;4.97;;
44822;SDS011;51097;51.984;5.650;2023-03-01T12:17:57;5.68;;;4.72;;
44822;SDS011;51097;51.984;5.650;2023-03-01T12:26:02;5.43;;;4.25;;
44822;SDS011;51097;51.984;5.650;2023-03-01T12:28:59;5.40;;;4.60;;
44822;SDS011;51097;51.984;5.650;2023-03-01T12:31:56;6.72;;;5.40;;
44822;SDS011;51097;51.984;5.650;2023-03-01T12:48:25;6.07;;;4.93;;
44822;SDS011;51097;51.984;5.650;2023-03-01T12:50:59;7.20;;;4.97;;
44822;SDS011;51097;51.984;5.650;2023-03-01T12:53:29;9.80;;;5.05;;
44822;SDS011;51097;51.984;5.650;2023-03-01T12:56:00;5.10;;;4.57;;
44822;SDS011;51097;51.984;5.650;2023-03-01T12:58:34;6.15;;;4.80;;
44822;SDS011;51097;51.984;5.650;2023-03-01T13:01:14;5.65;;;4.78;;
44822;SDS011;51097;51.984;5.650;2023-03-01T13:09:49;7.53;;;4.90;;
44822;SDS011;51097;51.984;5.650;2023-03-01T13:18:00;6.15;;;4.93;;
44822;SDS011;51097;51.984;5.650;2023-03-01T13:20:52;8.05;;;5.05;;
44822;SDS011;51097;51.984;5.650;2023-03-01T13:23:24;5.93;;;4.82;;
44822;SDS011;51097;51.984;5.650;2023-03-01T13:26:16;6.45;;;4.70;;
44822;SDS011;51097;51.984;5.650;2023-03-01T13:33:46;6.20;;;5.38;;
44822;SDS011;51097;51.984;5.650;2023-03-01T13:44:33;6.07;;;5.13;;
44822;SDS011;51097;51.984;5.650;2023-03-01T13:49:48;7.05;;;4.93;;
44822;SDS011;51097;51.984;5.650;2023-03-01T13:57:36;6.70;;;5.03;;
44822;SDS011;51097;51.984;5.650;2023-03-01T14:00:05;6.63;;;5.30;;
44822;SDS011;51097;51.984;5.650;2023-03-01T14:02:59;9.50;;;4.70;;
44822;SDS011;51097;51.984;5.650;2023-03-01T14:05:35;6.20;;;4.63;;
44822;SDS011;51097;51.984;5.650;2023-03-01T14:08:02;6.18;;;4.57;;
44822;SDS011;51097;51.984;5.650;2023-03-01T14:13:58;7.30;;;5.30;;
44822;SDS011;51097;51.984;5.650;2023-03-01T14:19:08;6.47;;;4.47;;
44822;SDS011;51097;51.984;5.650;2023-03-01T14:21:41;9.10;;;5.20;;
44822;SDS011;51097;51.984;5.650;2023-03-01T14:24:15;5.70;;;4.25;;
44822;SDS011;51097;51.984;5.650;2023-03-01T14:26:42;7.65;;;4.63;;
44822;SDS011;51097;51.984;5.650;2023-03-01T14:29:23;7.95;;;5.65;;
44822;SDS011;51097;51.984;5.650;2023-03-01T14:31:49;5.80;;;4.47;;
44822;SDS011;51097;51.984;5.650;2023-03-01T14:34:22;6.53;;;5.32;;
44822;SDS011;51097;51.984;5.650;2023-03-01T14:36:49;5.63;;;4.85;;
44822;SDS011;51097;51.984;5.650;2023-03-01T14:39:23;5.03;;;4.22;;
44822;SDS011;51097;51.984;5.650;2023-03-01T14:41:51;6.85;;;4.60;;
44822;SDS011;51097;51.984;5.650;2023-03-01T14:44:21;7.53;;;4.90;;
44822;SDS011;51097;51.984;5.650;2023-03-01T14:46:51;5.90;;;4.75;;
44822;SDS011;51097;51.984;5.650;2023-03-01T14:51:51;5.72;;;4.55;;
44822;SDS011;51097;51.984;5.650;2023-03-01T14:54:26;8.60;;;5.68;;
44822;SDS011;51097;51.984;5.650;2023-03-01T14:56:57;6.80;;;4.15;;
44822;SDS011;51097;51.984;5.650;2023-03-01T15:01:50;6.10;;;4.75;;
44822;SDS011;51097;51.984;5.650;2023-03-01T15:04:18;6.20;;;4.82;;
44822;SDS011;51097;51.984;5.650;2023-03-01T15:06:44;5.80;;;4.43;;
44822;SDS011;51097;51.984;5.650;2023-03-01T15:09:11;5.20;;;4.70;;
44822;SDS011;51097;51.984;5.650;2023-03-01T15:11:41;5.38;;;4.50;;
44822;SDS011;51097;51.984;5.650;2023-03-01T15:17:35;5.82;;;4.57;;
44822;SDS011;51097;51.984;5.650;2023-03-01T15:20:13;5.32;;;4.28;;
44822;SDS011;51097;51.984;5.650;2023-03-01T15:22:46;5.70;;;4.47;;
44822;SDS011;51097;51.984;5.650;2023-03-01T15:25:21;5.55;;;4.43;;
44822;SDS011;51097;51.984;5.650;2023-03-01T15:27:51;4.63;;;4.03;;
44822;SDS011;51097;51.984;5.650;2023-03-01T15:30:21;5.15;;;4.15;;
44822;SDS011;51097;51.984;5.650;2023-03-01T15:33:15;4.90;;;3.88;;
44822;SDS011;51097;51.984;5.650;2023-03-01T15:35:45;4.43;;;3.30;;
44822;SDS011;51097;51.984;5.650;2023-03-01T15:38:29;7.25;;;3.92;;
44822;SDS011;51097;51.984;5.650;2023-03-01T15:40:58;4.18;;;3.60;;
44822;SDS011;51097;51.984;5.650;2023-03-01T15:43:44;8.57;;;3.80;;
44822;SDS011;51097;51.984;5.650;2023-03-01T15:46:18;5.45;;;4.88;;
44822;SDS011;51097;51.984;5.650;2023-03-01T15:48:48;5.80;;;3.50;;
44822;SDS011;51097;51.984;5.650;2023-03-01T15:51:17;6.10;;;4.20;;
44822;SDS011;51097;51.984;5.650;2023-03-01T15:53:47;4.10;;;3.30;;
44822;SDS011;51097;51.984;5.650;2023-03-01T15:56:16;4.88;;;3.38;;
44822;SDS011;51097;51.984;5.650;2023-03-01T15:58:41;5.80;;;3.95;;
44822;SDS011;51097;51.984;5.650;2023-03-01T16:01:10;4.57;;;3.35;;
44822;SDS011;51097;51.984;5.650;2023-03-01T16:03:41;5.03;;;3.35;;
44822;SDS011;51097;51.984;5.650;2023-03-01T16:06:08;3.85;;;3.40;;
44822;SDS011;51097;51.984;5.650;2023-03-01T16:08:35;6.47;;;3.55;;
44822;SDS011;51097;51.984;5.650;2023-03-01T16:11:02;4.82;;;3.38;;
44822;SDS011;51097;51.984;5.650;2023-03-01T16:13:29;5.47;;;3.38;;
44822;SDS011;51097;51.984;5.650;2023-03-01T16:15:56;5.07;;;3.10;;
44822;SDS011;51097;51.984;5.650;2023-03-01T16:18:22;3.10;;;2.72;;
44822;SDS011;51097;51.984;5.650;2023-03-01T16:20:49;4.00;;;3.03;;
44822;SDS011;51097;51.984;5.650;2023-03-01T16:23:15;6.68;;;3.80;;
44822;SDS011;51097;51.984;5.650;2023-03-01T16:25:41;5.60;;;3.47;;
44822;SDS011;51097;51.984;5.650;2023-03-01T16:28:07;5.35;;;3.25;;
44822;SDS011;51097;51.984;5.650;2023-03-01T16:30:35;3.78;;;2.75;;
44822;SDS011;51097;51.984;5.650;2023-03-01T16:33:04;6.28;;;3.30;;
44822;SDS011;51097;51.984;5.650;2023-03-01T16:35:32;4.97;;;3.22;;
44822;SDS011;51097;51.984;5.650;2023-03-01T16:37:59;5.82;;;3.38;;
44822;SDS011;51097;51.984;5.650;2023-03-01T16:40:28;5.75;;;2.72;;
44822;SDS011;51097;51.984;5.650;2023-03-01T16:42:55;6.40;;;3.28;;
44822;SDS011;51097;51.984;5.650;2023-03-01T16:45:24;6.63;;;3.78;;
44822;SDS011;51097;51.984;5.650;2023-03-01T16:47:54;4.68;;;3.22;;